Terminal Aerodrome Forecast
Issued by NWS Sterling, VA

Current Version | Previous Version | Graphics & Text | Print | Product List | Glossary On
Versions: 1 2 3 4 5 6 7 8 9 10 11 12 13 14 15 16 17 18 19 20 21
000
FTUS41 KLWX 211448 AAA
TAFIAD
TAF AMD
KIAD 211448Z 2115/2218 36005KT P6SM OVC030
     FM211600 34007KT P6SM BKN040
     FM220700 33011G18KT P6SM SCT040 BKN060
     FM220900 33015G26KT P6SM BKN040
     FM221500 33017G27KT P6SM SCT040=

USA.gov is the U.S. government's official web portal to all federal, state and local government web resources and services.